Time;durP1;ratioP1;P1;durP2;ratioP2;P2;SDS_P1;SDS_P2;PMS_P1;PMS_P2;Temp;Humidity;BMP_temperature;BMP_pressure;BME280_temperature;BME280_humidity;BME280_pressure;Samples;Min_cycle;Max_cycle;Signal;HPM_P1;HPM_P2
2023/08/22 00:00:28;;;;;;;12.23;9.40;;;;;;;;;;6264329;28;20049;-82
2023/08/22 00:03:30;;;;;;;12.05;8.57;;;;;;;;;;6264090;28;20045;-78
2023/08/22 00:06:31;;;;;;;11.30;9.10;;;;;;;;;;6265824;28;20116;-79
2023/08/22 00:09:33;;;;;;;11.15;8.57;;;;;;;;;;6263249;28;20045;-79
2023/08/22 00:12:35;;;;;;;10.65;8.43;;;;;;;;;;6266421;28;20048;-79
2023/08/22 00:15:37;;;;;;;11.10;8.45;;;;;;;;;;6266377;28;20045;-81
2023/08/22 00:18:38;;;;;;;13.05;8.68;;;;;;;;;;6264367;28;20127;-81
2023/08/22 00:21:40;;;;;;;10.20;8.23;;;;;;;;;;6266472;28;20052;-79
2023/08/22 00:24:42;;;;;;;11.75;8.63;;;;;;;;;;6262569;28;20048;-79
2023/08/22 00:27:44;;;;;;;13.02;9.30;;;;;;;;;;6279316;28;20045;-80
2023/08/22 00:30:46;;;;;;;14.65;9.45;;;;;;;;;;6297439;28;20151;-79
2023/08/22 00:33:48;;;;;;;12.30;8.65;;;;;;;;;;6265009;28;20129;-77
2023/08/22 00:36:51;;;;;;;13.20;9.25;;;;;;;;;;6262476;28;20072;-79
2023/08/22 00:39:54;;;;;;;12.73;8.80;;;;;;;;;;6288495;28;20051;-80
2023/08/22 00:42:57;;;;;;;10.82;7.90;;;;;;;;;;6302582;28;20040;-81
2023/08/22 00:45:59;;;;;;;12.23;9.05;;;;;;;;;;6274446;28;20526;-79
2023/08/22 00:49:04;;;;;;;12.20;8.77;;;;;;;;;;6302774;28;20045;-79
2023/08/22 00:52:07;;;;;;;10.25;7.85;;;;;;;;;;6247939;28;20055;-80
2023/08/22 00:55:09;;;;;;;10.05;8.48;;;;;;;;;;6291830;28;20049;-79
2023/08/22 00:58:13;;;;;;;10.73;7.97;;;;;;;;;;6267098;28;20057;-81
2023/08/22 01:01:14;;;;;;;12.20;8.20;;;;;;;;;;6267884;28;20041;-81
2023/08/22 01:04:17;;;;;;;11.85;8.52;;;;;;;;;;6261893;28;20044;-81
2023/08/22 01:07:30;;;;;;;12.07;8.48;;;;;;;;;;6260575;28;20071;-81
2023/08/22 01:10:38;;;;;;;12.32;8.80;;;;;;;;;;6263691;28;20051;-79
2023/08/22 01:13:43;;;;;;;12.10;8.25;;;;;;;;;;6257189;28;20045;-79
2023/08/22 01:16:48;;;;;;;12.88;8.27;;;;;;;;;;6263800;28;20037;-79
2023/08/22 01:19:50;;;;;;;11.10;8.75;;;;;;;;;;6265842;28;20056;-82
2023/08/22 01:22:52;;;;;;;11.47;8.43;;;;;;;;;;6263500;28;20052;-81
2023/08/22 01:25:53;;;;;;;12.13;8.55;;;;;;;;;;6260592;28;20996;-78
2023/08/22 01:29:05;;;;;;;9.87;8.57;;;;;;;;;;6277531;28;20423;-80
2023/08/22 01:32:15;;;;;;;14.45;9.30;;;;;;;;;;6262297;28;20452;-79
2023/08/22 01:35:22;;;;;;;11.18;8.63;;;;;;;;;;6263548;28;20048;-81
2023/08/22 01:38:27;;;;;;;13.68;8.73;;;;;;;;;;6291777;28;20060;-79
2023/08/22 01:41:29;;;;;;;12.82;8.40;;;;;;;;;;6258897;28;20116;-80
2023/08/22 01:44:30;;;;;;;12.50;8.98;;;;;;;;;;6263361;28;20502;-81
2023/08/22 01:47:32;;;;;;;11.13;8.88;;;;;;;;;;6260137;28;20461;-80
2023/08/22 01:50:34;;;;;;;13.52;9.07;;;;;;;;;;6263761;28;20048;-80
2023/08/22 01:53:36;;;;;;;16.73;9.75;;;;;;;;;;6260625;28;20052;-79
2023/08/22 01:56:38;;;;;;;10.23;8.57;;;;;;;;;;6291308;28;20037;-80
2023/08/22 01:59:39;;;;;;;15.57;9.05;;;;;;;;;;6256572;28;20499;-79
2023/08/22 02:02:41;;;;;;;10.70;7.90;;;;;;;;;;6252386;28;20884;-81
2023/08/22 02:05:43;;;;;;;11.45;8.13;;;;;;;;;;6268601;28;20056;-81
2023/08/22 02:08:45;;;;;;;9.48;7.65;;;;;;;;;;6286604;28;20044;-80
2023/08/22 02:11:46;;;;;;;9.68;7.53;;;;;;;;;;6282309;28;20047;-80
2023/08/22 02:14:48;;;;;;;10.73;8.63;;;;;;;;;;6278724;28;20045;-81
2023/08/22 02:17:51;;;;;;;9.68;7.90;;;;;;;;;;6270986;28;20048;-81
2023/08/22 02:20:56;;;;;;;8.52;7.63;;;;;;;;;;6284729;28;20044;-79
2023/08/22 02:23:58;;;;;;;12.10;8.10;;;;;;;;;;6286099;28;20503;-80
2023/08/22 02:27:03;;;;;;;11.48;8.20;;;;;;;;;;6298966;28;20045;-80
2023/08/22 02:30:09;;;;;;;10.52;7.72;;;;;;;;;;6281512;28;20071;-81
2023/08/22 02:33:13;;;;;;;10.73;8.52;;;;;;;;;;6267494;28;20538;-81
2023/08/22 02:36:14;;;;;;;12.50;8.32;;;;;;;;;;6290175;28;20105;-78
2023/08/22 02:39:16;;;;;;;10.10;8.73;;;;;;;;;;6300731;28;20052;-79
2023/08/22 02:42:18;;;;;;;10.35;7.95;;;;;;;;;;6269831;28;20045;-79
2023/08/22 02:45:20;;;;;;;8.45;7.38;;;;;;;;;;6281444;28;20524;-79
2023/08/22 02:48:22;;;;;;;9.60;7.93;;;;;;;;;;6289744;28;20150;-80
2023/08/22 02:51:23;;;;;;;15.15;8.18;;;;;;;;;;6286578;28;20052;-80
2023/08/22 02:54:25;;;;;;;12.02;8.77;;;;;;;;;;6283498;28;20856;-81
2023/08/22 02:57:27;;;;;;;11.55;7.88;;;;;;;;;;6281659;28;20041;-80
2023/08/22 03:00:29;;;;;;;11.00;7.82;;;;;;;;;;6308536;28;20051;-81
2023/08/22 03:03:31;;;;;;;9.43;7.90;;;;;;;;;;6290543;28;20414;-80
2023/08/22 03:06:33;;;;;;;8.63;7.72;;;;;;;;;;6267199;28;20041;-80
2023/08/22 03:09:38;;;;;;;11.02;8.10;;;;;;;;;;6272139;28;20057;-79
2023/08/22 03:12:41;;;;;;;11.15;8.13;;;;;;;;;;6256462;28;20417;-80
2023/08/22 03:15:45;;;;;;;11.63;8.45;;;;;;;;;;6266257;28;20051;-79
2023/08/22 03:18:47;;;;;;;11.57;8.50;;;;;;;;;;6268158;28;20040;-81
2023/08/22 03:21:49;;;;;;;11.15;8.68;;;;;;;;;;6294189;28;20048;-80
2023/08/22 03:24:50;;;;;;;11.20;8.45;;;;;;;;;;6276582;28;20044;-79
2023/08/22 03:27:55;;;;;;;10.05;7.97;;;;;;;;;;6277765;28;20034;-78
2023/08/22 03:30:58;;;;;;;10.00;7.97;;;;;;;;;;6310978;28;20032;-80
2023/08/22 03:34:00;;;;;;;14.02;8.18;;;;;;;;;;6236746;28;20049;-80
2023/08/22 03:37:02;;;;;;;9.95;8.48;;;;;;;;;;6266340;28;20040;-79
2023/08/22 03:40:05;;;;;;;15.07;8.63;;;;;;;;;;6262030;28;20045;-79
2023/08/22 03:43:07;;;;;;;11.30;8.40;;;;;;;;;;6296773;28;20460;-81
2023/08/22 03:46:09;;;;;;;11.52;8.60;;;;;;;;;;6262452;28;20064;-78
2023/08/22 03:49:15;;;;;;;11.55;8.48;;;;;;;;;;6247963;28;20067;-79
2023/08/22 03:52:17;;;;;;;12.13;8.63;;;;;;;;;;6257929;28;20562;-78
2023/08/22 03:55:19;;;;;;;9.48;7.90;;;;;;;;;;6258671;28;20045;-78
2023/08/22 03:58:21;;;;;;;11.80;7.97;;;;;;;;;;6257618;28;20045;-79
2023/08/22 04:01:23;;;;;;;9.63;8.10;;;;;;;;;;6254694;28;20052;-79
2023/08/22 04:04:25;;;;;;;11.63;8.05;;;;;;;;;;6257722;28;20083;-80
2023/08/22 04:07:26;;;;;;;10.02;7.90;;;;;;;;;;6271399;28;20048;-80
2023/08/22 04:10:28;;;;;;;10.38;7.68;;;;;;;;;;6272679;28;20049;-80
2023/08/22 04:13:30;;;;;;;10.15;7.72;;;;;;;;;;6256548;28;20041;-79
2023/08/22 04:16:32;;;;;;;10.25;7.68;;;;;;;;;;6244975;28;20049;-80
2023/08/22 04:19:34;;;;;;;11.30;8.20;;;;;;;;;;6286293;28;20106;-80
2023/08/22 04:22:37;;;;;;;10.55;7.80;;;;;;;;;;6277557;28;20044;-81
2023/08/22 04:25:38;;;;;;;9.65;7.80;;;;;;;;;;6251624;28;20044;-79
2023/08/22 04:28:41;;;;;;;10.98;7.80;;;;;;;;;;6270134;28;20045;-79
2023/08/22 04:31:43;;;;;;;9.73;7.50;;;;;;;;;;6257258;28;20974;-80
2023/08/22 04:34:45;;;;;;;8.93;6.73;;;;;;;;;;6265742;28;20059;-80
2023/08/22 04:37:47;;;;;;;11.52;6.82;;;;;;;;;;6267499;28;20040;-80
2023/08/22 04:40:49;;;;;;;8.13;7.32;;;;;;;;;;6266102;28;20051;-79
2023/08/22 04:44:03;;;;;;;8.88;6.57;;;;;;;;;;6245360;28;20055;-80
2023/08/22 04:47:05;;;;;;;8.95;6.68;;;;;;;;;;6241747;28;20126;-80
2023/08/22 04:50:07;;;;;;;9.40;7.00;;;;;;;;;;6285188;28;20127;-80
2023/08/22 04:53:09;;;;;;;10.85;7.75;;;;;;;;;;6255968;28;20483;-81
2023/08/22 04:56:11;;;;;;;10.40;7.47;;;;;;;;;;6262904;28;20157;-80
2023/08/22 04:59:13;;;;;;;9.95;7.30;;;;;;;;;;6254049;28;20147;-80
2023/08/22 05:02:15;;;;;;;9.13;7.18;;;;;;;;;;6255637;28;20122;-80
2023/08/22 05:05:17;;;;;;;9.70;7.35;;;;;;;;;;6236426;28;20049;-79
2023/08/22 05:08:18;;;;;;;10.60;8.10;;;;;;;;;;6269572;28;20052;-79
2023/08/22 05:11:21;;;;;;;11.05;8.27;;;;;;;;;;6266259;28;20132;-80
2023/08/22 05:14:24;;;;;;;11.15;7.70;;;;;;;;;;6254000;28;20072;-81
2023/08/22 05:17:26;;;;;;;9.73;8.53;;;;;;;;;;6290900;28;20044;-81
2023/08/22 05:20:28;;;;;;;12.50;8.93;;;;;;;;;;6260395;28;21264;-80
2023/08/22 05:23:30;;;;;;;10.23;7.95;;;;;;;;;;6261433;28;20044;-80
2023/08/22 05:26:32;;;;;;;14.73;9.18;;;;;;;;;;6262988;28;20049;-80
2023/08/22 05:29:34;;;;;;;10.57;8.63;;;;;;;;;;6251412;28;20052;-80
2023/08/22 05:32:36;;;;;;;10.73;8.77;;;;;;;;;;6295436;28;20039;-81
2023/08/22 05:35:38;;;;;;;10.95;8.65;;;;;;;;;;6290567;28;20041;-80
2023/08/22 05:38:40;;;;;;;11.05;8.25;;;;;;;;;;6262632;28;20506;-82
2023/08/22 05:41:42;;;;;;;11.60;7.88;;;;;;;;;;6273723;28;20522;-81
2023/08/22 05:44:45;;;;;;;11.55;7.60;;;;;;;;;;6280064;28;20447;-79
2023/08/22 05:47:48;;;;;;;10.05;7.65;;;;;;;;;;6261012;28;20088;-81
2023/08/22 05:50:50;;;;;;;13.07;8.40;;;;;;;;;;6288755;28;20064;-82
2023/08/22 05:53:52;;;;;;;14.13;8.77;;;;;;;;;;6266377;28;20040;-82
2023/08/22 05:56:54;;;;;;;11.60;9.15;;;;;;;;;;6259865;28;20511;-82
2023/08/22 05:59:56;;;;;;;11.90;9.02;;;;;;;;;;6262421;28;20056;-82
2023/08/22 06:02:59;;;;;;;11.85;9.10;;;;;;;;;;6281453;28;20052;-80
2023/08/22 06:06:03;;;;;;;14.60;9.15;;;;;;;;;;6260411;28;20073;-82
2023/08/22 06:09:04;;;;;;;13.52;9.30;;;;;;;;;;6259662;28;20045;-80
2023/08/22 06:12:07;;;;;;;14.02;8.32;;;;;;;;;;6258131;28;20053;-79
2023/08/22 06:15:10;;;;;;;14.00;9.13;;;;;;;;;;6293700;28;20044;-79
2023/08/22 06:18:12;;;;;;;10.40;8.25;;;;;;;;;;6278560;28;20120;-82
2023/08/22 06:21:15;;;;;;;;;;;;;;;;;;6265426;28;20040;-82
2023/08/22 06:24:17;;;;;;;12.88;8.50;;;;;;;;;;6268748;28;19924;-82
2023/08/22 06:27:19;;;;;;;14.68;9.05;;;;;;;;;;6285111;28;20041;-84
2023/08/22 06:30:22;;;;;;;12.95;8.80;;;;;;;;;;6258565;28;20048;-82
2023/08/22 06:33:24;;;;;;;13.43;8.35;;;;;;;;;;6295372;28;20094;-82
2023/08/22 06:36:27;;;;;;;11.77;8.45;;;;;;;;;;6300722;28;20047;-81
2023/08/22 06:39:30;;;;;;;12.38;8.00;;;;;;;;;;6263025;28;20053;-81
2023/08/22 06:42:32;;;;;;;12.98;8.30;;;;;;;;;;6249300;28;20051;-83
2023/08/22 06:45:39;;;;;;;9.60;6.95;;;;;;;;;;6289358;28;20040;-82
2023/08/22 06:48:42;;;;;;;9.27;7.18;;;;;;;;;;6255550;28;20127;-82
2023/08/22 06:51:44;;;;;;;13.15;8.18;;;;;;;;;;6277225;28;20142;-83
2023/08/22 06:54:46;;;;;;;9.45;7.20;;;;;;;;;;6270920;28;20044;-84
2023/08/22 06:57:48;;;;;;;8.43;6.70;;;;;;;;;;6255765;28;20049;-83
2023/08/22 07:00:50;;;;;;;12.23;7.32;;;;;;;;;;6274101;28;20152;-79
2023/08/22 07:03:52;;;;;;;11.13;7.38;;;;;;;;;;6306357;28;20072;-82
2023/08/22 07:07:11;;;;;;;15.05;6.82;;;;;;;;;;6262025;28;20199;-82
2023/08/22 07:10:13;;;;;;;10.07;6.60;;;;;;;;;;6258699;28;20053;-81
2023/08/22 07:13:19;;;;;;;9.95;6.47;;;;;;;;;;6268215;28;20056;-82
2023/08/22 07:16:26;;;;;;;10.68;6.80;;;;;;;;;;6253547;28;20533;-78
2023/08/22 07:19:28;;;;;;;11.38;7.00;;;;;;;;;;6255599;28;20045;-79
2023/08/22 07:22:42;;;;;;;12.63;6.28;;;;;;;;;;6260140;28;20041;-79
2023/08/22 07:25:49;;;;;;;7.50;6.53;;;;;;;;;;6255721;28;20419;-78
2023/08/22 07:28:51;;;;;;;11.00;6.32;;;;;;;;;;6252658;28;20049;-79
2023/08/22 07:31:57;;;;;;;9.30;6.40;;;;;;;;;;6248561;28;20057;-81
2023/08/22 07:34:59;;;;;;;7.70;6.07;;;;;;;;;;6260647;28;20060;-79
2023/08/22 07:38:02;;;;;;;12.95;6.00;;;;;;;;;;6259822;28;20392;-80
2023/08/22 07:41:05;;;;;;;10.25;6.05;;;;;;;;;;6232328;28;20132;-79
2023/08/22 07:44:06;;;;;;;9.80;5.80;;;;;;;;;;6243615;28;20047;-78
2023/08/22 07:47:08;;;;;;;6.87;6.17;;;;;;;;;;6256655;28;20045;-80
2023/08/22 07:50:10;;;;;;;9.48;5.40;;;;;;;;;;6239720;28;20053;-79
2023/08/22 07:53:12;;;;;;;6.82;5.65;;;;;;;;;;6240769;28;20045;-81
2023/08/22 07:56:14;;;;;;;8.27;5.53;;;;;;;;;;6244575;28;20059;-80
2023/08/22 07:59:16;;;;;;;10.80;5.63;;;;;;;;;;6263325;28;20112;-79
2023/08/22 08:02:17;;;;;;;7.20;5.23;;;;;;;;;;6237458;28;20041;-80
2023/08/22 08:05:19;;;;;;;5.00;4.50;;;;;;;;;;6238569;28;20054;-79
2023/08/22 08:08:21;;;;;;;6.57;4.65;;;;;;;;;;6253588;28;20040;-80
2023/08/22 08:11:23;;;;;;;9.30;5.10;;;;;;;;;;6280560;28;20067;-78
2023/08/22 08:14:25;;;;;;;6.77;4.87;;;;;;;;;;6249767;28;20045;-79
2023/08/22 08:17:26;;;;;;;6.53;4.97;;;;;;;;;;6255347;28;20044;-81
2023/08/22 08:20:28;;;;;;;6.20;4.57;;;;;;;;;;6254440;28;20499;-80
2023/08/22 08:23:31;;;;;;;7.90;4.53;;;;;;;;;;6253601;28;20036;-81
2023/08/22 08:26:33;;;;;;;6.32;4.10;;;;;;;;;;6256711;28;20048;-79
2023/08/22 08:29:35;;;;;;;4.70;3.83;;;;;;;;;;6253049;28;20060;-81
2023/08/22 08:32:36;;;;;;;8.33;3.93;;;;;;;;;;6237073;28;20064;-81
2023/08/22 08:35:38;;;;;;;4.55;3.53;;;;;;;;;;6250321;28;20044;-81
2023/08/22 08:38:40;;;;;;;6.07;3.80;;;;;;;;;;6254193;28;20044;-82
2023/08/22 08:41:54;;;;;;;12.40;3.93;;;;;;;;;;6236333;28;20056;-82
2023/08/22 08:44:56;;;;;;;4.43;3.03;;;;;;;;;;6254686;28;20463;-80
2023/08/22 08:48:01;;;;;;;10.18;3.88;;;;;;;;;;6254891;28;20041;-80
2023/08/22 08:51:04;;;;;;;10.68;3.30;;;;;;;;;;6251303;28;20097;-79
2023/08/22 08:54:06;;;;;;;6.53;3.15;;;;;;;;;;6256458;28;20227;-81
2023/08/22 08:57:08;;;;;;;8.20;3.47;;;;;;;;;;6237184;28;20519;-79
2023/08/22 09:00:11;;;;;;;8.77;2.97;;;;;;;;;;6255711;28;20072;-81
2023/08/22 09:03:12;;;;;;;6.10;2.90;;;;;;;;;;6255796;28;20053;-81
2023/08/22 09:06:14;;;;;;;3.58;2.72;;;;;;;;;;6257638;28;20047;-81
2023/08/22 09:09:17;;;;;;;5.38;3.25;;;;;;;;;;6256444;28;20045;-80
2023/08/22 09:12:19;;;;;;;6.43;3.25;;;;;;;;;;6234601;28;20040;-81
2023/08/22 09:15:20;;;;;;;4.80;3.50;;;;;;;;;;6255474;28;20048;-81
2023/08/22 09:18:22;;;;;;;6.05;3.05;;;;;;;;;;6236893;28;20041;-80
2023/08/22 09:21:24;;;;;;;5.13;2.75;;;;;;;;;;6255645;28;20091;-80
2023/08/22 09:24:27;;;;;;;3.78;2.70;;;;;;;;;;6251239;28;20067;-80
2023/08/22 09:27:29;;;;;;;4.47;2.80;;;;;;;;;;6234853;28;20048;-81
2023/08/22 09:30:31;;;;;;;4.57;2.95;;;;;;;;;;6268781;28;20521;-80
2023/08/22 09:33:45;;;;;;;5.15;3.20;;;;;;;;;;6255428;28;20124;-80
2023/08/22 09:36:47;;;;;;;4.28;2.85;;;;;;;;;;6280838;28;20044;-81
2023/08/22 09:39:54;;;;;;;3.22;2.80;;;;;;;;;;6281391;28;20040;-80
2023/08/22 09:42:56;;;;;;;5.38;2.22;;;;;;;;;;6283538;28;20138;-82
2023/08/22 09:45:59;;;;;;;4.53;2.80;;;;;;;;;;6284724;28;20414;-81
2023/08/22 09:49:03;;;;;;;4.05;2.70;;;;;;;;;;6269239;28;20059;-81
2023/08/22 09:52:04;;;;;;;4.00;2.72;;;;;;;;;;6267149;28;20048;-81
2023/08/22 09:55:10;;;;;;;9.32;3.03;;;;;;;;;;6282403;28;20075;-80
2023/08/22 09:58:13;;;;;;;7.68;3.08;;;;;;;;;;6280844;28;20052;-80
2023/08/22 10:01:16;;;;;;;6.45;3.08;;;;;;;;;;6286608;28;20498;-80
2023/08/22 10:04:18;;;;;;;7.80;2.97;;;;;;;;;;6279659;28;20043;-80
2023/08/22 10:07:21;;;;;;;3.45;2.75;;;;;;;;;;6288025;28;20090;-81
2023/08/22 10:10:23;;;;;;;;;;;;;;;;;;6283398;28;20061;-81
2023/08/22 10:13:25;;;;;;;5.75;3.00;;;;;;;;;;6267265;28;19919;-81
2023/08/22 10:16:29;;;;;;;5.20;2.90;;;;;;;;;;6286934;28;20044;-81
2023/08/22 10:19:31;;;;;;;3.97;3.08;;;;;;;;;;6304343;28;20041;-80
2023/08/22 10:22:33;;;;;;;3.95;3.03;;;;;;;;;;6284701;28;20051;-81
2023/08/22 10:25:50;;;;;;;5.00;2.60;;;;;;;;;;6294172;28;20051;-81
2023/08/22 10:29:17;;;;;;;6.75;3.15;;;;;;;;;;6281653;28;20040;-81
2023/08/22 10:32:20;;;;;;;4.90;2.65;;;;;;;;;;6291978;28;20529;-80
2023/08/22 10:35:23;;;;;;;5.05;3.03;;;;;;;;;;6296037;28;20052;-81
2023/08/22 10:38:25;;;;;;;6.70;2.83;;;;;;;;;;6303660;28;20043;-80
2023/08/22 10:41:53;;;;;;;5.60;3.20;;;;;;;;;;6313264;28;20033;-80
2023/08/22 10:44:56;;;;;;;5.45;3.28;;;;;;;;;;6295184;28;20127;-81
2023/08/22 10:48:09;;;;;;;6.25;3.15;;;;;;;;;;6286705;28;20048;-82
2023/08/22 10:51:11;;;;;;;4.35;3.33;;;;;;;;;;6280425;28;20052;-81
2023/08/22 10:54:17;;;;;;;3.45;3.13;;;;;;;;;;6280334;28;20189;-82
2023/08/22 10:57:19;;;;;;;5.80;3.20;;;;;;;;;;6295667;28;20044;-80
2023/08/22 11:00:22;;;;;;;;;;;;;;;;;;6297566;28;20048;-82
2023/08/22 11:03:23;;;;;;;3.10;2.70;;;;;;;;;;6272725;28;19956;-82
2023/08/22 11:06:25;;;;;;;4.40;3.00;;;;;;;;;;6294225;28;20051;-81
2023/08/22 11:09:27;;;;;;;5.22;2.80;;;;;;;;;;6294566;28;20043;-80
2023/08/22 11:12:29;;;;;;;3.47;2.80;;;;;;;;;;6277423;28;20048;-81
2023/08/22 11:15:31;;;;;;;3.40;2.90;;;;;;;;;;6292514;28;20033;-81
2023/08/22 11:18:33;;;;;;;4.95;2.75;;;;;;;;;;6292371;28;20052;-83
2023/08/22 11:21:38;;;;;;;4.45;3.03;;;;;;;;;;6310279;28;20041;-81
2023/08/22 11:24:48;;;;;;;5.35;3.05;;;;;;;;;;6291886;28;20045;-82
2023/08/22 11:27:50;;;;;;;5.50;3.15;;;;;;;;;;6280904;28;20410;-80
2023/08/22 11:30:52;;;;;;;6.85;3.00;;;;;;;;;;6306992;28;20058;-80
2023/08/22 11:33:53;;;;;;;4.40;2.90;;;;;;;;;;6288810;28;20044;-81
2023/08/22 11:36:55;;;;;;;3.75;3.08;;;;;;;;;;6270234;28;20049;-81
2023/08/22 11:40:00;;;;;;;6.03;3.10;;;;;;;;;;6283602;28;20049;-82
2023/08/22 11:43:02;;;;;;;8.15;3.17;;;;;;;;;;6286617;28;20048;-80
2023/08/22 11:46:10;;;;;;;3.35;2.60;;;;;;;;;;6280666;28;20256;-82
2023/08/22 11:49:12;;;;;;;4.43;3.15;;;;;;;;;;6286222;28;20040;-82
2023/08/22 11:52:13;;;;;;;6.13;2.80;;;;;;;;;;6285436;28;20549;-81
2023/08/22 11:55:22;;;;;;;3.95;2.72;;;;;;;;;;6281599;28;20498;-81
2023/08/22 11:58:23;;;;;;;5.25;2.65;;;;;;;;;;6266082;28;20036;-81
2023/08/22 12:01:25;;;;;;;3.47;2.50;;;;;;;;;;6285754;28;20048;-81
2023/08/22 12:04:47;;;;;;;3.95;2.63;;;;;;;;;;6269472;28;20032;-81
2023/08/22 12:07:49;;;;;;;4.88;2.65;;;;;;;;;;6285298;28;20055;-81
2023/08/22 12:10:52;;;;;;;3.33;2.17;;;;;;;;;;6269204;28;20056;-81
2023/08/22 12:13:54;;;;;;;4.45;2.42;;;;;;;;;;6266537;28;20036;-81
2023/08/22 12:16:56;;;;;;;3.03;2.40;;;;;;;;;;6284453;28;20066;-80
2023/08/22 12:19:57;;;;;;;6.25;2.55;;;;;;;;;;6283994;28;20514;-81
2023/08/22 12:23:01;;;;;;;5.13;2.90;;;;;;;;;;6280552;28;20040;-82
2023/08/22 12:26:03;;;;;;;4.75;2.80;;;;;;;;;;6262624;28;20045;-80
2023/08/22 12:29:04;;;;;;;5.53;2.90;;;;;;;;;;6285513;28;20160;-82
2023/08/22 12:32:06;;;;;;;4.72;3.10;;;;;;;;;;6287854;28;20071;-80
2023/08/22 12:35:10;;;;;;;;;;;;;;;;;;6284049;28;20499;-82
2023/08/22 12:38:11;;;;;;;4.05;2.53;;;;;;;;;;6264506;28;19928;-81
2023/08/22 12:41:14;;;;;;;3.80;2.78;;;;;;;;;;6267999;28;20533;-80
2023/08/22 12:44:16;;;;;;;3.08;2.70;;;;;;;;;;6303511;28;20056;-81
2023/08/22 12:47:17;;;;;;;6.03;3.10;;;;;;;;;;6280993;28;20459;-82
2023/08/22 12:50:19;;;;;;;6.15;2.58;;;;;;;;;;6282209;28;20704;-81
2023/08/22 12:53:21;;;;;;;4.15;3.15;;;;;;;;;;6291262;28;20040;-81
2023/08/22 12:56:27;;;;;;;4.25;3.03;;;;;;;;;;6284386;28;20040;-82
2023/08/22 12:59:28;;;;;;;5.85;2.90;;;;;;;;;;6283266;28;20520;-80
2023/08/22 13:02:30;;;;;;;4.55;3.00;;;;;;;;;;6279796;28;20056;-80
2023/08/22 13:05:32;;;;;;;5.50;3.20;;;;;;;;;;6288480;28;20044;-80
2023/08/22 13:08:34;;;;;;;3.83;2.85;;;;;;;;;;6288362;28;20108;-80
2023/08/22 13:11:54;;;;;;;5.70;3.22;;;;;;;;;;6268177;28;20044;-84
2023/08/22 13:14:55;;;;;;;5.13;3.03;;;;;;;;;;6283782;28;20059;-82
2023/08/22 13:17:57;;;;;;;4.82;2.90;;;;;;;;;;6256411;28;20071;-80
2023/08/22 13:20:59;;;;;;;3.42;2.90;;;;;;;;;;6275677;28;20040;-82
2023/08/22 13:24:00;;;;;;;4.43;2.63;;;;;;;;;;6296484;28;20055;-83
2023/08/22 13:27:05;;;;;;;5.05;2.67;;;;;;;;;;6296202;28;20055;-78
2023/08/22 13:30:07;;;;;;;4.32;2.60;;;;;;;;;;6289370;28;20510;-80
2023/08/22 13:33:09;;;;;;;;;;;;;;;;;;6251386;28;20045;-79
2023/08/22 13:36:11;;;;;;;3.92;2.72;;;;;;;;;;6265863;28;19931;-82
2023/08/22 13:39:15;;;;;;;5.35;2.80;;;;;;;;;;6290255;28;20074;-79
2023/08/22 13:42:18;;;;;;;3.75;2.70;;;;;;;;;;6262990;28;20056;-80
2023/08/22 13:45:23;;;;;;;3.97;2.70;;;;;;;;;;6247352;28;20123;-80
2023/08/22 13:48:25;;;;;;;4.40;2.88;;;;;;;;;;6277460;28;20060;-83
2023/08/22 13:51:30;;;;;;;4.47;3.10;;;;;;;;;;6273372;28;20047;-84
2023/08/22 13:54:32;;;;;;;4.07;2.67;;;;;;;;;;6282737;28;20517;-83
2023/08/22 13:57:34;;;;;;;5.85;3.28;;;;;;;;;;6290670;28;20157;-84
2023/08/22 14:00:36;;;;;;;5.88;3.05;;;;;;;;;;6271675;28;20045;-83
2023/08/22 14:03:39;;;;;;;4.38;3.15;;;;;;;;;;6267762;28;20178;-83
2023/08/22 14:06:41;;;;;;;4.63;2.88;;;;;;;;;;6278508;28;20056;-84
2023/08/22 14:09:42;;;;;;;6.22;3.20;;;;;;;;;;6260479;28;20494;-84
2023/08/22 14:12:44;;;;;;;6.40;3.17;;;;;;;;;;6280128;28;20056;-83
2023/08/22 14:15:48;;;;;;;6.65;3.28;;;;;;;;;;6274207;28;20167;-83
2023/08/22 14:18:50;;;;;;;3.95;2.90;;;;;;;;;;6296179;28;20045;-83
2023/08/22 14:21:52;;;;;;;5.75;3.42;;;;;;;;;;6309121;28;20100;-82
2023/08/22 14:24:56;;;;;;;6.07;3.08;;;;;;;;;;6271945;28;20044;-83
2023/08/22 14:27:58;;;;;;;6.55;3.25;;;;;;;;;;6302016;28;20532;-82
2023/08/22 14:31:00;;;;;;;3.80;3.08;;;;;;;;;;6282120;28;20110;-82
2023/08/22 14:34:03;;;;;;;5.53;3.30;;;;;;;;;;6269992;28;20064;-81
2023/08/22 14:37:04;;;;;;;6.00;3.45;;;;;;;;;;6267309;28;20072;-80
2023/08/22 14:40:23;;;;;;;7.40;3.58;;;;;;;;;;6257610;28;20045;-82
2023/08/22 14:43:28;;;;;;;5.03;3.40;;;;;;;;;;6264888;28;20053;-83
2023/08/22 14:46:30;;;;;;;6.22;3.53;;;;;;;;;;6256383;28;20065;-82
2023/08/22 14:49:32;;;;;;;5.78;3.70;;;;;;;;;;6251789;28;20063;-85
2023/08/22 14:52:33;;;;;;;6.20;3.60;;;;;;;;;;6254366;28;20486;-78
2023/08/22 14:55:35;;;;;;;6.47;3.75;;;;;;;;;;6253826;28;20048;-77
2023/08/22 14:58:39;;;;;;;4.85;3.45;;;;;;;;;;6257447;28;20521;-79
2023/08/22 15:01:41;;;;;;;5.72;3.60;;;;;;;;;;6237225;28;20052;-76
2023/08/22 15:04:42;;;;;;;5.70;3.88;;;;;;;;;;6254866;28;20060;-79
2023/08/22 15:07:44;;;;;;;7.18;3.67;;;;;;;;;;6252606;28;20083;-78
2023/08/22 15:10:50;;;;;;;5.63;3.65;;;;;;;;;;6257012;28;20439;-77
2023/08/22 15:13:51;;;;;;;4.97;3.60;;;;;;;;;;6253776;28;20109;-79
2023/08/22 15:16:53;;;;;;;7.47;4.05;;;;;;;;;;6258465;28;20052;-79
2023/08/22 15:19:55;;;;;;;6.28;3.67;;;;;;;;;;6255181;28;20057;-73
2023/08/22 15:22:57;;;;;;;7.38;3.80;;;;;;;;;;6254709;28;20055;-76
2023/08/22 15:25:58;;;;;;;6.55;3.63;;;;;;;;;;6253307;28;20530;-75
2023/08/22 15:29:00;;;;;;;8.95;3.92;;;;;;;;;;6234340;28;20725;-75
2023/08/22 15:32:02;;;;;;;4.55;3.67;;;;;;;;;;6253116;28;20076;-76
2023/08/22 15:35:04;;;;;;;4.20;3.83;;;;;;;;;;6254311;28;20048;-77
2023/08/22 15:38:06;;;;;;;4.53;3.50;;;;;;;;;;6260709;28;20056;-79
2023/08/22 15:41:10;;;;;;;5.63;3.83;;;;;;;;;;6251513;28;20531;-76
2023/08/22 15:44:12;;;;;;;5.07;3.70;;;;;;;;;;6252799;28;20781;-76
2023/08/22 15:47:13;;;;;;;4.47;3.50;;;;;;;;;;6254069;28;20057;-76
2023/08/22 15:50:15;;;;;;;3.63;3.33;;;;;;;;;;6252719;28;20045;-76
2023/08/22 15:53:17;;;;;;;4.85;3.60;;;;;;;;;;6251922;28;20487;-78
2023/08/22 15:56:19;;;;;;;4.82;3.90;;;;;;;;;;6259932;28;20049;-77
2023/08/22 15:59:20;;;;;;;4.05;3.58;;;;;;;;;;6249466;28;20056;-77
2023/08/22 16:02:22;;;;;;;3.78;3.47;;;;;;;;;;6237917;28;20067;-79
2023/08/22 16:05:24;;;;;;;6.47;3.70;;;;;;;;;;6256774;28;20069;-77
2023/08/22 16:08:26;;;;;;;4.72;3.75;;;;;;;;;;6261074;28;20057;-79
2023/08/22 16:11:27;;;;;;;6.60;3.78;;;;;;;;;;6266361;28;20519;-81
2023/08/22 16:14:29;;;;;;;4.22;3.65;;;;;;;;;;6260613;28;20929;-80
2023/08/22 16:17:32;;;;;;;6.78;4.10;;;;;;;;;;6262197;28;20045;-80
2023/08/22 16:20:34;;;;;;;5.68;4.13;;;;;;;;;;6266282;28;20045;-79
2023/08/22 16:23:36;;;;;;;4.45;3.65;;;;;;;;;;6261737;28;20050;-80
2023/08/22 16:26:37;;;;;;;4.47;4.07;;;;;;;;;;6262458;28;20142;-80
2023/08/22 16:29:39;;;;;;;7.27;5.60;;;;;;;;;;6262226;28;20448;-81
2023/08/22 16:32:41;;;;;;;7.70;4.95;;;;;;;;;;6265534;28;20470;-78
2023/08/22 16:35:54;;;;;;;9.20;5.53;;;;;;;;;;6266866;28;20407;-81
2023/08/22 16:38:55;;;;;;;6.20;4.10;;;;;;;;;;6266269;28;20943;-81
2023/08/22 16:41:57;;;;;;;7.28;4.47;;;;;;;;;;6261360;28;20041;-82
2023/08/22 16:44:59;;;;;;;5.50;4.45;;;;;;;;;;6268704;28;20052;-83
2023/08/22 16:48:01;;;;;;;6.50;4.57;;;;;;;;;;6261338;28;20130;-80
2023/08/22 16:51:03;;;;;;;4.57;4.10;;;;;;;;;;6276533;28;20044;-79
2023/08/22 16:54:04;;;;;;;5.82;4.28;;;;;;;;;;6262131;28;20052;-80
2023/08/22 16:57:12;;;;;;;4.95;4.20;;;;;;;;;;6258720;28;20207;-82
2023/08/22 17:00:16;;;;;;;5.47;4.50;;;;;;;;;;6260072;28;20065;-79
2023/08/22 17:03:18;;;;;;;5.68;4.60;;;;;;;;;;6261317;28;20789;-80
2023/08/22 17:06:20;;;;;;;5.63;4.40;;;;;;;;;;6263696;28;20041;-81
2023/08/22 17:09:21;;;;;;;5.50;4.67;;;;;;;;;;6245147;28;20118;-79
2023/08/22 17:12:23;;;;;;;6.17;4.47;;;;;;;;;;6281561;28;20036;-81
2023/08/22 17:15:25;;;;;;;5.30;4.80;;;;;;;;;;6281109;28;20424;-81
2023/08/22 17:18:27;;;;;;;6.85;5.25;;;;;;;;;;6263537;28;20051;-81
2023/08/22 17:21:33;;;;;;;5.32;4.80;;;;;;;;;;6237050;28;20500;-81
2023/08/22 17:24:35;;;;;;;5.43;4.75;;;;;;;;;;6261671;28;20060;-80
2023/08/22 17:27:37;;;;;;;4.88;4.38;;;;;;;;;;6258517;28;20105;-80
2023/08/22 17:30:39;;;;;;;5.68;5.07;;;;;;;;;;6240458;28;20052;-81
2023/08/22 17:33:41;;;;;;;6.03;4.45;;;;;;;;;;6238166;28;20048;-80
2023/08/22 17:36:43;;;;;;;6.78;4.90;;;;;;;;;;6244274;28;20057;-81
2023/08/22 17:39:45;;;;;;;5.97;4.73;;;;;;;;;;6262775;28;20536;-81
2023/08/22 17:42:47;;;;;;;6.90;4.63;;;;;;;;;;6232191;28;20450;-82
2023/08/22 17:45:49;;;;;;;7.57;5.03;;;;;;;;;;6259455;28;20053;-82
2023/08/22 17:48:51;;;;;;;;;;;;;;;;;;6258644;28;20044;-81
2023/08/22 17:51:52;;;;;;;7.72;4.70;;;;;;;;;;6261081;28;20394;-81
2023/08/22 17:54:54;;;;;;;5.60;4.60;;;;;;;;;;6238766;28;20041;-82
2023/08/22 17:57:56;;;;;;;7.10;5.50;;;;;;;;;;6263622;28;20044;-82
2023/08/22 18:00:57;;;;;;;7.05;5.45;;;;;;;;;;6272067;28;20086;-82
2023/08/22 18:04:00;;;;;;;6.17;5.23;;;;;;;;;;6285995;28;20039;-80
2023/08/22 18:07:02;;;;;;;7.10;5.43;;;;;;;;;;6288304;28;20055;-80
2023/08/22 18:10:05;;;;;;;8.80;5.77;;;;;;;;;;6296303;28;20897;-81
2023/08/22 18:13:06;;;;;;;;;;;;;;;;;;6280481;28;20075;-80